aviador You're here:

ZMUB Decoded Metar

ULAN BATOR in MONGOLIA
Report Time2017-06-25 06:30:00
UTC Time2017-06-25 06:54:25
Flight Rules vfr VFR
Wind250° at 10 kt
W.Decomp.*RWY 32: 3.9 kt HW 9.2 kt LCW
RWY 33: 2.2 kt HW 9.7 kt LCW
W.Rank250° ranks 19
Current wind is above 250° avg. (7.0)
Visibility9999 m
Phenomena:N/A
Clouds:Few TCU 030 Hf
Few 033 Hf
Scattered 100 Hf
Expected CloudBase > 12,000 ft AGL from Temp-Dew spread
CeilingNone
Temp29°C (ISA +23)
Dew Point-1°C (14% RH)
Heat Index27.4°C
AAT23.2°C
QNH1010 hPa
Density Alt7,113 ft
Elevation4,364 ft
Report Wrong Elevation
Raw Report
ZMUB 250630Z 25005MPS 9999 FEW030TCU FEW033 SCT100 29/M01 Q1010
NOSIG RMK QFE650.9 16 MOP=

Extra information for ZMUB:More info

Metar Taf Metar & Taf Last 4 Metars F.Rules Stats Wind Profile Meteogram Temp Stats Airport Information Weather charts Add Link Nearby VenuesMetar ALERT Operation Metar Decoded Social comments